• Join FlightAware (Why Join?)
  • Login
  • US Flag 
Gobble Gobble! 
07:26AM EST


 

Airport Tracker/Info


-or-


 

Live Flight TrackerFlight Track Log ✈ JUS327 ✈ 14-Apr-2013 ✈ KLRD - KRFD

Flight Track Log - Related Links

Times and Time Zones

All times are in EDT time to prevent confusion due to time zone crossing. See the JUS327 flight status page for this flight to view local times or setup timezone preferences in your user account.

Time Position Orientation Groundspeed Altitude Reporting Facility
EDT Latitude Longitude Course Direction KTS MPH feet Rate Location/Type
07:20PM 27.5169 -99.4631 22° Northeast 169 194 1,500  Level Houston Center
07:21PM 27.4994 -99.4164 113° Southeast 206 237 3,000 1,560 Climbing Houston Center
07:22PM 27.5575 -99.3886 23° Northeast 224 258 4,800 1,860 Climbing Houston Center
07:23PM 27.6317 -99.3556 22° Northeast 255 293 6,900 2,340 Climbing Houston Center
07:24PM 28.1736 -99.1507 22° Northeast  Level FlightAware Approximate
07:24PM 27.7000 -99.3011 35° Northeast 285 328 9,700  Level Houston Center
07:25PM 28.2806 -99.1013 22° Northeast  Level FlightAware Approximate
07:25PM 27.7753 -99.2514 30° Northeast 298 343 11,000  Level Houston Center
07:26PM 27.8672 -99.1928 29° Northeast 348 400 12,300 1,620 Climbing Houston Center
07:27PM 27.9572 -99.1222 35° Northeast 387 445 14,400 1,980 Climbing Houston Center
07:28PM 28.0719 -99.0447 31° Northeast 399 459 16,400 1,860 Climbing Houston Center
07:29PM 28.1692 -98.9761 32° Northeast 408 470 18,300 1,680 Climbing Houston Center
07:30PM 28.2700 -98.9086 31° Northeast 417 480 19,900 1,380 Climbing Houston Center
07:31PM 28.3714 -98.8419 30° Northeast 422 486 21,200 1,200 Climbing Houston Center
07:32PM 28.4739 -98.7642 34° Northeast 436 502 22,400 1,200 Climbing Houston Center
07:33PM 28.5819 -98.6978 28° Northeast 442 509 23,700 1,200 Climbing Houston Center
07:34PM 28.7011 -98.6083 33° Northeast 450 518 25,000 1,140 Climbing Houston Center
07:35PM 28.8208 -98.5311 29° Northeast 460 529 26,100 1,020 Climbing Houston Center
07:36PM 28.9306 -98.4539 32° Northeast 464 534 27,100 960 Climbing Houston Center
07:37PM 29.0403 -98.3714 33° Northeast 472 543 28,100 960 Climbing Houston Center
07:38PM 29.1633 -98.2922 29° Northeast 473 544 29,100 1,200 Climbing Houston Center
07:39PM 29.2725 -98.2083 34° Northeast 473 544 30,600 1,380 Climbing Houston Center
07:40PM 29.3922 -98.1306 30° Northeast 464 534 32,000 1,140 Climbing Houston Center
07:41PM 29.5003 -98.0519 32° Northeast 464 534 33,000 1,140 Climbing Houston Center
07:42PM 29.6136 -97.9653 34° Northeast 457 526 34,400 960 Climbing Houston Center
07:43PM 29.7236 -97.8950 29° Northeast 453 521 35,000 240 Climbing Houston Center
07:44PM 29.8319 -97.8111 34° Northeast 467 537 35,000  Level Houston Center
07:45PM 29.9517 -97.7281 31° Northeast 468 539 35,000  Level Houston Center
07:46PM 30.0628 -97.6533 30° Northeast 467 537 35,000  Level Houston Center
07:48PM 30.1575 -97.5739 36° Northeast 471 542 35,000  Level Houston Center
07:49PM 30.2861 -97.4853 31° Northeast 456 525 35,000 -60 Level Houston Center
07:50PM 30.3950 -97.4053 32° Northeast 459 528 34,900  Descending Houston Center
07:51PM 30.5017 -97.3228 34° Northeast 458 527 35,000  Climbing Houston Center
07:52PM 30.6139 -97.2508 29° Northeast 457 526 35,000  Level Houston Center
07:53PM 30.7175 -97.1661 35° Northeast 457 526 35,000  Level Houston Center
07:54PM 30.8258 -97.0892 31° Northeast 462 532 35,000  Level Houston Center
07:55PM 30.9514 -96.9983 32° Northeast 461 531 35,000  Level Houston Center
07:56PM 31.0567 -96.9169 34° Northeast 461 531 35,000  Level Houston Center
07:57PM 31.1669 -96.8436 30° Northeast 454 522 35,000  Level Houston Center
07:58PM 31.2725 -96.7589 34° Northeast 458 527 35,000  Level Houston Center
07:59PM 31.3822 -96.6778 32° Northeast 462 532 35,000  Level Houston Center
08:00PM 31.4933 -96.6039 30° Northeast 457 526 35,000  Level Houston Center
08:01PM 31.5986 -96.5144 36° Northeast 464 534 35,000  Level Houston Center
08:02PM 31.6939 -96.4464 31° Northeast 457 526 35,000  Level Fort Worth Center
08:03PM 31.8122 -96.3597 32° Northeast 452 520 35,000  Level Fort Worth Center
08:04PM 31.9200 -96.2728 34° Northeast 460 529 35,000  Level Fort Worth Center
08:05PM 32.0281 -96.1956 31° Northeast 460 529 35,000  Level Fort Worth Center
08:06PM 32.1378 -96.1081 34° Northeast 465 535 35,000  Level Fort Worth Center
08:07PM 32.2475 -96.0281 32° Northeast 460 529 35,000  Level Fort Worth Center
08:08PM 32.3572 -95.9500 31° Northeast 460 529 35,000  Level Fort Worth Center
08:09PM 32.4606 -95.8622 36° Northeast 452 520 35,000  Level Fort Worth Center
08:10PM 32.5722 -95.7839 31° Northeast 457 526 35,000  Level Fort Worth Center
08:11PM 32.6756 -95.7006 34° Northeast 450 518 35,000  Level Fort Worth Center
08:12PM 32.7831 -95.6144 34° Northeast 455 524 35,000  Level Fort Worth Center
08:13PM 32.8906 -95.5406 30° Northeast 444 511 35,000  Level Fort Worth Center
08:14PM 32.9978 -95.4517 35° Northeast 449 517 35,000  Level Fort Worth Center
08:15PM 33.1008 -95.3725 33° Northeast 454 522 35,000  Level Fort Worth Center
08:16PM 33.2100 -95.2956 31° Northeast 454 522 35,000  Level Fort Worth Center
08:17PM 33.3128 -95.2036 37° Northeast 454 522 35,000  Level Fort Worth Center
08:18PM 33.4242 -95.1261 30° Northeast 454 522 35,000  Level Fort Worth Center
08:19PM 33.5311 -95.0436 33° Northeast 454 522 35,000  Level Fort Worth Center
08:20PM 33.6358 -94.9511 36° Northeast 454 522 35,000  Level Fort Worth Center
08:21PM 33.7450 -94.8756 30° Northeast 459 528 35,000  Level Fort Worth Center
08:22PM 33.8517 -94.7900 34° Northeast 453 521 35,000  Level Fort Worth Center
08:23PM 33.9603 -94.6967 35° Northeast 460 529 35,000  Level Fort Worth Center
08:25PM 34.1678 -94.5319 33° Northeast 460 529 35,000  Level Memphis Center
08:26PM 34.2769 -94.4467 33° Northeast 460 529 35,000  Level Memphis Center
08:27PM 34.3839 -94.3661 32° Northeast 454 522 35,000  Level Memphis Center
08:28PM 34.4889 -94.2753 35° Northeast 449 517 35,000  Level Memphis Center
08:29PM 34.6086 -94.1825 33° Northeast 456 525 35,000  Level Memphis Center
08:30PM 34.7117 -94.0936 35° Northeast 456 525 35,000  Level Memphis Center
08:31PM 34.8206 -94.0047 34° Northeast 456 525 35,000  Level Memphis Center
08:32PM 34.9211 -93.9181 35° Northeast 456 525 35,000  Level Memphis Center
08:33PM 35.0300 -93.8314 33° Northeast 451 519 35,000  Level Memphis Center
08:34PM 35.1367 -93.7417 35° Northeast 456 525 35,000  Level Memphis Center
08:35PM 35.2431 -93.6622 31° Northeast 456 525 35,000  Level Memphis Center
08:36PM 35.3458 -93.5669 37° Northeast 456 525 35,000  Level Memphis Center
08:37PM 35.4503 -93.4717 37° Northeast 461 531 35,000  Level Memphis Center
08:38PM 35.5567 -93.3861 33° Northeast 461 531 35,000  Level Memphis Center
08:39PM 35.6458 -93.3308 27° Northeast 454 522 35,000  Level Memphis Center
08:40PM 35.7589 -93.2169 39° Northeast 454 522 35,000  Level Memphis Center
08:41PM 35.8650 -93.1336 32° Northeast 459 528 35,000  Level Memphis Center
08:42PM 35.9731 -93.0528 31° Northeast 453 521 35,000  Level Memphis Center
08:43PM 36.0775 -92.9533 38° Northeast 453 521 35,000  Level Memphis Center
08:44PM 36.1856 -92.8667 33° Northeast 458 527 35,000  Level Memphis Center
08:46PM 36.3917 -92.6844 35° Northeast 470 541 35,000  Level Kansas City Center
08:47PM 36.5003 -92.5978 33° Northeast 468 539 35,000  Level Kansas City Center
08:48PM 36.6008 -92.5142 34° Northeast 464 534 35,000  Level Kansas City Center
08:49PM 36.7056 -92.4100 39° Northeast 472 543 35,000  Level Kansas City Center
08:50PM 36.8381 -92.3075 32° Northeast 469 540 35,000  Level Kansas City Center
08:51PM 36.9444 -92.2117 36° Northeast 468 539 35,000  Level Kansas City Center
08:52PM 37.0514 -92.1111 37° Northeast 476 548 35,000  Level Kansas City Center
08:53PM 37.1614 -92.0264 32° Northeast 467 537 35,000  Level Kansas City Center
08:54PM 37.2675 -91.9269 37° Northeast 474 545 35,000  Level Kansas City Center
08:55PM 37.3756 -91.8294 36° Northeast 479 551 35,000  Level Kansas City Center
08:56PM 37.4864 -91.7414 32° Northeast 475 547 35,000  Level Kansas City Center
08:57PM 37.6103 -91.6172 38° Northeast 475 547 35,000  Level Kansas City Center
08:58PM 37.7203 -91.5286 32° Northeast 474 545 35,000  Level Kansas City Center
08:59PM 37.8306 -91.4342 34° Northeast 477 549 35,000  Level Kansas City Center
09:00PM 37.9294 -91.3286 40° Northeast 475 547 35,000  Level Kansas City Center
09:01PM 38.0436 -91.2394 32° Northeast 477 549 35,000  Level Kansas City Center
09:02PM 38.1492 -91.1375 37° Northeast 481 554 35,000  Level Kansas City Center
09:03PM 38.2542 -91.0397 36° Northeast 481 554 35,000  Level Kansas City Center
09:04PM 38.3656 -90.9525 32° Northeast 471 542 35,000  Level Kansas City Center
09:05PM 38.4908 -90.8239 39° Northeast 478 550 35,000  Level Kansas City Center
09:06PM 38.6003 -90.7275 35° Northeast 475 547 35,000  Level Kansas City Center
09:07PM 38.7125 -90.6344 33° Northeast 473 544 35,000  Level Kansas City Center
09:08PM 38.8161 -90.5250 39° Northeast 478 550 35,000  Level Kansas City Center
09:09PM 38.9453 -90.4553 23° Northeast 460 529 35,000  Level Kansas City Center
09:10PM 39.0614 -90.4053 18° North 459 528 35,000  Level Kansas City Center
09:11PM 39.1856 -90.3494 19° North 467 537 35,000  Level Kansas City Center
09:12PM 39.3111 -90.3128 13° North 465 535 35,000  Level Kansas City Center
09:13PM 39.4356 -90.2592 18° North 468 539 35,000  Level Kansas City Center
09:15PM 39.5589 -90.1994 20° North 472 543 35,000  Level Kansas City Center
09:16PM 39.7125 -90.1544 13° North 473 544 35,000  Level Kansas City Center
09:17PM 39.8175 -90.1039 20° North 475 547 35,000  Level Kansas City Center
09:18PM 39.9708 -90.0386 18° North 483 556 35,000  Level Chicago Center
09:19PM 40.1011 -89.9958 14° North 484 557 35,000  Level Chicago Center
09:20PM 40.2275 -89.9311 21° North 487 560 35,000  Level Chicago Center
09:21PM 40.3581 -89.8817 16° North 486 559 35,000 -60 Level Chicago Center
09:22PM 40.5081 -89.8253 16° North 486 559 34,900 -420 Descending Chicago Center
09:23PM 40.6342 -89.7586 22° Northeast 488 562 34,200 -1,320 Descending Chicago Center
09:24PM 40.7622 -89.7131 15° North 477 549 32,200 -1,620 Descending Chicago Center
09:25PM 40.8864 -89.6711 14° North 465 535 31,000 -600 Descending Chicago Center
09:26PM 41.0011 -89.6100 22° Northeast 456 525 31,000 -720 Level Chicago Center
09:27PM 41.1239 -89.5569 18° North 465 535 29,600 -2,340 Descending Chicago Center
09:28PM 41.2792 -89.5017 15° North 481 554 26,200 -2,340 Descending Chicago Center
09:29PM 41.3969 -89.4392 22° Northeast 461 531 24,800 -2,100 Descending Chicago Center
09:30PM 41.5117 -89.3936 17° North 425 489 21,900 -2,820 Descending Chicago Center
09:31PM 41.6156 -89.3461 19° North 402 463 19,100 -3,480 Descending Chicago Center
09:32PM 41.7192 -89.2994 19° North 395 455 14,800 -4,080 Descending Chicago Center
09:33PM 41.8303 -89.2650 13° North 405 466 10,700 -3,000 Descending Chicago Center
09:34PM 41.9397 -89.2172 18° North 366 421 8,600 -2,220 Descending Chicago Center
09:35PM 42.0217 -89.1856 16° North 325 374 6,200 -1,320 Descending Chicago Center
09:36PM 42.1086 -89.1542 15° North 309 356 6,000 -120 Descending Chicago Center
09:37PM 42.1958 -89.1292 12° North 316 364 6,000 -780 Level Chicago Center
09:38PM 42.2781 -89.1281 North 300 345 4,400 -1,800 Descending Chicago Center
09:39PM 42.3211 -89.0700 45° Northeast 260 299 2,400 -1,020 Descending Chicago Center
09:40PM 42.2853 -89.0122 130° Southeast 252 290 2,400  Level Chicago Center